createdAt,value
2022-08-09T00:04:06.221Z,1.80
2022-08-09T00:14:21.966Z,1.33
2022-08-09T00:19:32.615Z,1.27
2022-08-09T00:24:35.944Z,1.35
2022-08-09T00:30:23.373Z,1.25
2022-08-09T00:35:03.152Z,1.67
2022-08-09T00:40:13.838Z,1.40
2022-08-09T00:45:20.236Z,1.38
2022-08-09T00:50:24.734Z,1.63
2022-08-09T00:56:04.120Z,1.52
2022-08-09T01:00:51.892Z,1.50
2022-08-09T01:06:17.560Z,1.55
2022-08-09T01:11:41.953Z,1.20
2022-08-09T01:17:18.007Z,1.65
2022-08-09T01:23:04.401Z,1.70
2022-08-09T01:28:15.164Z,1.60
2022-08-09T01:33:19.241Z,1.83
2022-08-09T01:38:31.249Z,1.50
2022-08-09T01:43:50.699Z,1.50
2022-08-09T01:49:00.138Z,1.70
2022-08-09T01:54:13.784Z,1.60
2022-08-09T01:59:18.948Z,1.80
2022-08-09T02:04:23.093Z,1.90
2022-08-09T02:09:41.874Z,1.23
2022-08-09T02:14:47.946Z,2.20
2022-08-09T02:19:54.037Z,1.90
2022-08-09T02:24:59.155Z,1.90
2022-08-09T02:30:02.073Z,1.70
2022-08-09T02:35:17.152Z,1.83
2022-08-09T02:40:26.933Z,2.15
2022-08-09T02:45:41.452Z,1.77
2022-08-09T02:50:54.360Z,1.70
2022-08-09T02:56:00.116Z,1.67
2022-08-09T03:01:06.298Z,2.05
2022-08-09T03:06:14.505Z,1.83
2022-08-09T03:12:06.671Z,1.77
2022-08-09T03:16:47.455Z,1.73
2022-08-09T03:21:51.449Z,1.70
2022-08-09T03:26:54.444Z,1.75
2022-08-09T03:32:00.189Z,1.90
2022-08-09T03:37:54.540Z,2.03
2022-08-09T03:42:26.282Z,1.80
2022-08-09T03:47:32.482Z,1.70
2022-08-09T03:52:42.609Z,1.52
2022-08-09T03:58:03.314Z,1.92
2022-08-09T04:03:11.741Z,1.98
2022-08-09T04:08:17.104Z,1.77
2022-08-09T04:13:19.180Z,1.75
2022-08-09T04:18:41.740Z,1.83
2022-08-09T04:23:53.760Z,1.40
2022-08-09T04:28:58.323Z,1.50
2022-08-09T04:34:02.403Z,1.10
2022-08-09T04:39:08.728Z,1.30
2022-08-09T04:44:14.474Z,1.50
2022-08-09T04:49:16.737Z,1.38
2022-08-09T04:54:24.234Z,1.50
2022-08-09T04:59:26.251Z,1.30
2022-08-09T05:04:32.385Z,1.10
2022-08-09T05:09:42.183Z,1.35
2022-08-09T05:14:50.944Z,1.40
2022-08-09T05:19:57.044Z,1.52
2022-08-09T05:25:00.993Z,1.30
2022-08-09T05:30:04.921Z,1.65
2022-08-09T05:35:08.868Z,1.17
2022-08-09T05:40:11.745Z,1.25
2022-08-09T05:45:14.292Z,1.33
2022-08-09T05:50:32.342Z,1.05
2022-08-09T05:55:38.561Z,1.35
2022-08-09T06:00:40.184Z,1.50
2022-08-09T06:05:57.017Z,1.25
2022-08-09T06:11:00.053Z,1.50
2022-08-09T06:16:04.781Z,1.02
2022-08-09T06:21:08.138Z,1.45
2022-08-09T06:26:09.845Z,1.10
2022-08-09T06:31:11.552Z,1.55
2022-08-09T06:36:13.838Z,1.50
2022-08-09T06:41:18.880Z,1.17
2022-08-09T06:46:39.722Z,1.20
2022-08-09T06:51:43.097Z,1.20
2022-08-09T06:56:47.640Z,1.40
2022-08-09T07:01:54.006Z,1.45
2022-08-09T07:06:59.955Z,1.05
2022-08-09T07:12:03.174Z,1.35
2022-08-09T07:17:08.185Z,1.42
2022-08-09T07:22:10.899Z,1.17
2022-08-09T07:27:26.857Z,1.20
2022-08-09T07:32:35.289Z,1.23
2022-08-09T07:37:44.559Z,1.42
2022-08-09T07:42:56.081Z,1.40
2022-08-09T07:48:01.465Z,1.17
2022-08-09T07:53:07.938Z,1.30
2022-08-09T07:58:13.339Z,1.33
2022-08-09T08:03:16.027Z,1.55
2022-08-09T08:09:02.218Z,1.30
2022-08-09T08:13:55.897Z,1.73
2022-08-09T08:18:59.533Z,1.30
2022-08-09T08:24:12.056Z,1.30
2022-08-09T08:29:20.392Z,1.27
2022-08-09T08:34:29.872Z,1.20
2022-08-09T08:39:39.191Z,1.38
2022-08-09T08:44:46.636Z,1.63
2022-08-09T08:49:49.410Z,1.83
2022-08-09T08:54:55.376Z,1.77
2022-08-09T08:59:57.506Z,1.33
2022-08-09T09:05:05.925Z,1.17
2022-08-09T09:10:11.639Z,1.65
2022-08-09T09:15:28.155Z,1.73
2022-08-09T09:20:36.539Z,1.90
2022-08-09T09:26:04.123Z,1.50
2022-08-09T09:31:05.967Z,1.48
2022-08-09T09:36:20.487Z,1.50
2022-08-09T09:41:22.709Z,1.80
2022-08-09T09:46:45.731Z,1.77
2022-08-09T09:52:02.284Z,1.40
2022-08-09T09:58:00.787Z,1.65
2022-08-09T10:02:46.633Z,1.77
2022-08-09T10:08:10.650Z,1.42
2022-08-09T10:13:10.972Z,1.60
2022-08-09T10:18:26.524Z,1.40
2022-08-09T10:23:28.366Z,1.27
2022-08-09T10:28:33.186Z,1.40
2022-08-09T10:34:09.005Z,1.50
2022-08-09T10:39:00.059Z,1.45
2022-08-09T10:44:04.006Z,1.45
2022-08-09T10:49:50.056Z,1.45
2022-08-09T10:54:48.937Z,1.40
2022-08-09T10:59:57.588Z,1.92
2022-08-09T11:05:24.870Z,2.00
2022-08-09T11:10:41.229Z,1.63
2022-08-09T11:16:37.010Z,1.40
2022-08-09T11:22:10.470Z,1.38
2022-08-09T11:28:05.017Z,1.50
2022-08-09T11:33:15.451Z,1.70
2022-08-09T11:38:28.842Z,1.77
2022-08-09T11:43:34.935Z,1.30
2022-08-09T11:48:53.807Z,1.60
2022-08-09T11:54:27.653Z,2.00
2022-08-09T11:59:33.695Z,1.42
2022-08-09T12:04:38.015Z,2.53
2022-08-09T12:09:40.041Z,1.52
2022-08-09T12:15:08.027Z,1.45
2022-08-09T12:20:16.461Z,1.40
2022-08-09T12:25:36.978Z,1.30
2022-08-09T12:30:40.403Z,0.82
2022-08-09T12:35:43.021Z,1.38
2022-08-09T12:40:46.751Z,1.00
2022-08-09T12:51:03.954Z,2.07
2022-08-09T12:56:44.303Z,1.10
2022-08-09T13:01:46.760Z,0.93
2022-08-09T13:06:51.155Z,1.10
2022-08-09T13:12:02.476Z,0.95
2022-08-09T13:17:08.663Z,1.02
2022-08-09T13:22:37.482Z,1.00
2022-08-09T13:27:48.541Z,1.10
2022-08-09T13:32:57.926Z,0.70
2022-08-09T13:38:00.294Z,1.17
2022-08-09T13:43:05.269Z,1.10
2022-08-09T13:48:11.392Z,1.02
2022-08-09T13:53:16.709Z,0.80
2022-08-09T13:58:18.366Z,1.05
2022-08-09T14:04:01.802Z,0.88
2022-08-09T14:08:43.329Z,1.00
2022-08-09T14:14:16.999Z,0.82
2022-08-09T14:19:07.077Z,0.90
2022-08-09T14:24:22.098Z,1.02
2022-08-09T14:30:35.400Z,0.80
2022-08-09T14:34:55.557Z,0.77
2022-08-09T14:39:57.684Z,0.80
2022-08-09T14:46:39.141Z,1.00
2022-08-09T14:50:24.911Z,1.10
2022-08-09T14:55:31.976Z,1.30
2022-08-09T15:00:36.302Z,1.13
2022-08-09T15:05:39.704Z,1.52
2022-08-09T15:11:01.675Z,1.00
2022-08-09T15:16:07.934Z,0.93
2022-08-09T15:21:56.829Z,0.70
2022-08-09T15:26:32.042Z,1.20
2022-08-09T15:31:41.854Z,1.40
2022-08-09T15:36:48.161Z,1.00
2022-08-09T15:41:50.812Z,0.68
2022-08-09T15:46:52.508Z,0.95
2022-08-09T15:52:04.014Z,0.60
2022-08-09T15:57:08.598Z,0.50
2022-08-09T16:02:13.389Z,0.77
2022-08-09T16:07:15.353Z,0.57
2022-08-09T16:12:17.720Z,1.48
2022-08-09T16:17:19.385Z,0.70
2022-08-09T16:22:24.076Z,0.60
2022-08-09T16:27:26.765Z,0.90
2022-08-09T16:32:54.371Z,0.70
2022-08-09T16:37:56.948Z,0.85
2022-08-09T16:43:02.261Z,0.70
2022-08-09T16:48:40.587Z,0.70
2022-08-09T16:53:33.809Z,0.50
2022-08-09T17:03:38.698Z,0.90
2022-08-09T17:08:59.935Z,0.70
2022-08-09T17:14:05.132Z,0.90
2022-08-09T17:19:06.861Z,0.98
2022-08-09T17:24:20.626Z,0.65
2022-08-09T17:29:31.876Z,0.57
2022-08-09T17:35:04.205Z,0.70
2022-08-09T17:40:01.766Z,0.80
2022-08-09T17:45:06.448Z,0.63
2022-08-09T17:50:16.832Z,0.70
2022-08-09T17:55:19.342Z,0.90
2022-08-09T18:00:33.563Z,0.75
2022-08-09T18:05:44.118Z,0.80
2022-08-09T18:10:46.237Z,0.75
2022-08-09T18:16:08.843Z,0.70
2022-08-09T18:21:19.288Z,0.75
2022-08-09T18:26:26.112Z,0.88
2022-08-09T18:31:51.316Z,1.40
2022-08-09T18:36:50.505Z,0.73
2022-08-09T18:41:55.628Z,0.75
2022-08-09T18:47:08.110Z,0.88
2022-08-09T18:52:13.112Z,0.70
2022-08-09T18:57:15.661Z,0.70
2022-08-09T19:02:18.636Z,0.82
2022-08-09T19:07:20.952Z,0.63
2022-08-09T19:12:24.358Z,1.23
2022-08-09T19:17:31.132Z,0.63
2022-08-09T19:22:33.344Z,0.60
2022-08-09T19:27:35.915Z,0.70
2022-08-09T19:32:38.764Z,0.70
2022-08-09T19:37:54.478Z,0.60
2022-08-09T19:42:57.801Z,0.70
2022-08-09T19:47:59.801Z,1.30
2022-08-09T19:53:04.300Z,0.70
2022-08-09T19:58:07.222Z,0.88
2022-08-09T20:04:17.182Z,0.52
2022-08-09T20:08:40.470Z,0.63
2022-08-09T20:13:53.849Z,0.60
2022-08-09T20:19:43.134Z,0.77
2022-08-09T20:24:19.377Z,0.70
2022-08-09T20:29:37.362Z,0.82
2022-08-09T20:34:39.820Z,0.60
2022-08-09T20:40:16.831Z,0.47
2022-08-09T20:46:01.507Z,0.60
2022-08-09T20:50:48.034Z,0.85
2022-08-09T20:56:02.430Z,0.90
2022-08-09T21:01:13.972Z,0.60
2022-08-09T21:06:31.616Z,1.02
2022-08-09T21:16:55.093Z,0.80
2022-08-09T21:21:57.996Z,0.80
2022-08-09T21:26:59.765Z,0.80
2022-08-09T21:32:18.743Z,0.65
2022-08-09T21:37:21.902Z,0.75
2022-08-09T21:42:28.494Z,0.70
2022-08-09T21:47:30.592Z,0.93
2022-08-09T21:52:33.062Z,0.65
2022-08-09T21:57:39.120Z,0.90
2022-08-09T22:02:59.913Z,0.90
2022-08-09T22:08:01.902Z,0.85
2022-08-09T22:13:07.575Z,0.70
2022-08-09T22:18:13.325Z,0.77
2022-08-09T22:23:14.977Z,1.00
2022-08-09T22:28:29.472Z,0.70
2022-08-09T22:33:42.583Z,0.73
2022-08-09T22:38:51.196Z,1.08
2022-08-09T22:44:01.314Z,0.63
2022-08-09T22:49:09.814Z,0.90
2022-08-09T22:54:12.277Z,0.95
2022-08-09T22:59:55.303Z,1.00
2022-08-09T23:04:38.291Z,0.85
2022-08-09T23:09:40.458Z,1.00
2022-08-09T23:14:42.778Z,0.88
2022-08-09T23:20:01.130Z,0.93
2022-08-09T23:25:06.702Z,0.90
2022-08-09T23:30:08.663Z,0.73
2022-08-09T23:35:10.330Z,0.90
2022-08-09T23:40:12.501Z,0.80
2022-08-09T23:45:37.349Z,1.05
2022-08-09T23:50:36.149Z,0.82
2022-08-09T23:55:38.109Z,0.80
